Time;durP1;ratioP1;P1;durP2;ratioP2;P2;SDS_P1;SDS_P2;PMS_P1;PMS_P2;Temp;Humidity;BMP_temperature;BMP_pressure;BME280_temperature;BME280_humidity;BME280_pressure;Samples;Min_cycle;Max_cycle;Signal;HPM_P1;HPM_P2
2021/11/21 00:01:36;;;;;;;36.85;16.75;;;5.10;99.90;;;;;;4979615;28;20395;-82
2021/11/21 00:04:02;;;;;;;33.50;16.55;;;5.00;99.90;;;;;;4980301;28;20042;-82
2021/11/21 00:06:28;;;;;;;33.45;15.95;;;5.10;99.90;;;;;;4984109;28;20027;-82
2021/11/21 00:08:54;;;;;;;36.30;17.23;;;5.00;99.90;;;;;;4995639;28;20037;-81
2021/11/21 00:11:20;;;;;;;38.67;17.48;;;7.50;99.90;;;;;;4978516;28;20112;-82
2021/11/21 00:13:48;;;;;;;38.35;16.77;;;5.20;99.90;;;;;;4978627;28;20040;-81
2021/11/21 00:16:14;;;;;;;37.92;17.55;;;5.20;99.90;;;;;;4995408;28;20029;-81
2021/11/21 00:18:40;;;;;;;34.28;16.08;;;5.10;99.90;;;;;;4977361;28;20030;-82
2021/11/21 00:21:06;;;;;;;31.75;17.73;;;5.10;99.90;;;;;;4995033;28;20027;-81
2021/11/21 00:23:31;;;;;;;33.90;17.02;;;5.00;99.90;;;;;;4995521;28;20113;-82
2021/11/21 00:25:57;;;;;;;32.13;16.02;;;5.00;99.90;;;;;;4969435;28;20118;-82
2021/11/21 00:28:23;;;;;;;34.15;15.95;;;6.80;99.90;;;;;;4985517;28;20045;-81
2021/11/21 00:30:49;;;;;;;29.40;15.85;;;6.60;99.90;;;;;;5007164;28;20023;-81
2021/11/21 00:33:14;;;;;;;32.70;17.15;;;5.10;99.90;;;;;;5006371;28;20502;-81
2021/11/21 00:35:40;;;;;;;27.90;15.45;;;5.10;99.90;;;;;;4979797;28;20042;-83
2021/11/21 00:38:05;;;;;;;31.70;15.52;;;5.10;99.90;;;;;;4978438;28;20026;-81
2021/11/21 00:40:31;;;;;;;32.88;15.90;;;5.10;99.90;;;;;;4994796;28;20036;-81
2021/11/21 00:42:57;;;;;;;31.40;15.73;;;5.10;99.90;;;;;;4995949;28;20041;-82
2021/11/21 00:45:24;;;;;;;31.30;16.15;;;5.70;99.90;;;;;;4995576;28;20022;-82
2021/11/21 00:47:50;;;;;;;37.25;16.83;;;5.10;99.90;;;;;;4995483;28;20030;-82
2021/11/21 00:50:22;;;;;;;33.05;17.15;;;5.10;99.90;;;;;;4976739;28;20037;-82
2021/11/21 00:52:48;;;;;;;32.65;17.27;;;5.10;99.90;;;;;;4995233;28;20054;-82
2021/11/21 00:55:16;;;;;;;36.55;18.02;;;5.00;99.90;;;;;;4995486;28;20481;-82
2021/11/21 00:57:43;;;;;;;39.28;19.60;;;5.10;99.90;;;;;;4995505;28;20022;-82
2021/11/21 01:00:12;;;;;;;37.88;19.23;;;5.00;99.90;;;;;;4995442;28;20049;-82
2021/11/21 01:02:39;;;;;;;40.10;19.48;;;5.10;99.90;;;;;;4995736;28;20058;-82
2021/11/21 01:05:06;;;;;;;38.42;19.70;;;6.40;99.90;;;;;;4978768;28;20034;-83
2021/11/21 01:07:36;;;;;;;39.63;20.83;;;5.10;99.90;;;;;;4978747;28;20022;-83
2021/11/21 01:10:04;;;;;;;37.10;19.30;;;5.10;99.90;;;;;;4962232;28;20027;-82
2021/11/21 01:12:29;;;;;;;36.20;20.35;;;6.00;99.90;;;;;;5000430;28;20047;-81
2021/11/21 01:14:55;;;;;;;33.78;19.73;;;5.10;99.90;;;;;;4983981;28;20041;-82
2021/11/21 01:17:21;;;;;;;34.45;19.92;;;5.90;99.90;;;;;;4994740;28;20403;-81
2021/11/21 01:19:46;;;;;;;35.08;20.35;;;5.30;99.90;;;;;;4994374;28;20048;-81
2021/11/21 01:22:12;;;;;;;34.92;20.77;;;5.10;99.90;;;;;;4994934;28;20488;-80
2021/11/21 01:24:38;;;;;;;34.30;19.63;;;5.10;99.90;;;;;;4994355;28;20051;-82
2021/11/21 01:27:04;;;;;;;31.98;20.20;;;5.20;99.90;;;;;;4994401;28;20026;-81
2021/11/21 01:29:30;;;;;;;33.53;19.75;;;5.10;99.90;;;;;;4993719;28;20545;-82
2021/11/21 01:31:55;;;;;;;35.17;20.25;;;5.10;99.90;;;;;;4976486;28;20069;-81
2021/11/21 01:34:21;;;;;;;35.67;20.08;;;5.20;99.90;;;;;;4994216;28;20030;-81
2021/11/21 01:36:47;;;;;;;30.15;18.27;;;6.80;99.90;;;;;;4976886;28;20042;-81
2021/11/21 01:39:12;;;;;;;32.08;19.17;;;5.10;99.90;;;;;;4993297;28;20041;-82
2021/11/21 01:41:38;;;;;;;31.90;19.35;;;5.10;99.90;;;;;;4997128;28;20026;-82
2021/11/21 01:44:04;;;;;;;30.50;18.73;;;5.10;99.90;;;;;;4997980;28;20031;-82
2021/11/21 01:46:39;;;;;;;32.75;19.23;;;5.10;99.90;;;;;;4980218;28;20100;-81
2021/11/21 01:49:06;;;;;;;33.65;20.17;;;5.40;99.90;;;;;;4997369;28;20475;-83
2021/11/21 01:51:32;;;;;;;32.58;19.27;;;5.90;99.90;;;;;;4980477;28;20031;-82
2021/11/21 01:53:58;;;;;;;35.25;19.27;;;5.00;99.90;;;;;;4997916;28;20081;-82
2021/11/21 01:56:26;;;;;;;32.35;19.60;;;7.00;99.90;;;;;;4980381;28;20073;-82
2021/11/21 01:58:53;;;;;;;33.50;20.02;;;5.70;99.90;;;;;;4979581;28;20033;-82
2021/11/21 02:01:19;;;;;;;33.45;18.65;;;5.30;99.90;;;;;;4997646;28;20061;-82
2021/11/21 02:03:44;;;;;;;32.00;19.58;;;5.10;99.90;;;;;;4997144;28;20053;-82
2021/11/21 02:06:10;;;;;;;30.60;20.00;;;5.00;99.90;;;;;;4997748;28;20038;-82
2021/11/21 02:08:36;;;;;;;32.00;19.38;;;6.10;99.90;;;;;;4996744;28;20036;-83
2021/11/21 02:11:02;;;;;;;32.45;19.45;;;6.30;99.90;;;;;;4997406;28;20106;-82
2021/11/21 02:13:28;;;;;;;31.70;19.55;;;6.80;99.90;;;;;;4997621;28;20466;-82
2021/11/21 02:15:54;;;;;;;28.20;18.45;;;6.60;99.90;;;;;;4964408;28;20027;-82
2021/11/21 02:18:22;;;;;;;28.52;18.58;;;5.10;99.90;;;;;;4997324;28;20029;-82
2021/11/21 02:20:49;;;;;;;29.20;18.77;;;6.20;99.90;;;;;;4997211;28;20502;-82
2021/11/21 02:23:16;;;;;;;29.55;19.10;;;5.10;99.90;;;;;;4980561;28;20041;-83
2021/11/21 02:25:42;;;;;;;35.13;20.98;;;5.10;99.90;;;;;;4998237;28;20031;-82
2021/11/21 02:28:08;;;;;;;32.97;21.20;;;5.30;99.90;;;;;;5003328;28;20054;-82
2021/11/21 02:30:34;;;;;;;38.45;21.55;;;5.30;99.90;;;;;;4973385;28;20027;-81
2021/11/21 02:33:00;;;;;;;34.00;20.80;;;6.70;99.90;;;;;;5007138;28;20052;-82
2021/11/21 02:35:27;;;;;;;35.03;21.17;;;5.70;99.90;;;;;;5000524;28;20042;-83
2021/11/21 02:37:52;;;;;;;38.70;21.40;;;5.00;99.90;;;;;;4997513;28;20034;-81
2021/11/21 02:40:19;;;;;;;34.13;21.42;;;4.80;99.90;;;;;;4982180;28;20037;-81
2021/11/21 02:42:45;;;;;;;35.53;21.20;;;5.00;99.90;;;;;;4999274;28;20034;-82
2021/11/21 02:45:13;;;;;;;33.53;21.08;;;4.90;99.90;;;;;;4998458;28;20026;-81
2021/11/21 02:47:39;;;;;;;32.90;20.23;;;4.90;99.90;;;;;;4997888;28;20471;-82
2021/11/21 02:50:17;;;;;;;34.45;20.25;;;4.90;99.90;;;;;;5000477;28;20042;-82
2021/11/21 02:52:43;;;;;;;33.88;21.13;;;6.00;99.90;;;;;;4991662;28;20027;-82
2021/11/21 02:55:09;;;;;;;33.20;20.58;;;4.90;99.90;;;;;;5005639;28;20022;-82
2021/11/21 02:57:35;;;;;;;33.08;19.33;;;5.00;99.90;;;;;;4980019;28;20030;-83
2021/11/21 03:00:02;;;;;;;30.15;19.30;;;4.90;99.90;;;;;;4996756;28;20142;-82
2021/11/21 03:02:28;;;;;;;29.48;18.48;;;5.00;99.90;;;;;;4979988;28;20514;-83
2021/11/21 03:04:55;;;;;;;27.95;17.67;;;4.90;99.90;;;;;;4979622;28;20062;-82
2021/11/21 03:07:21;;;;;;;29.50;17.40;;;4.90;99.90;;;;;;4979011;28;20015;-82
2021/11/21 03:09:51;;;;;;;25.85;17.40;;;4.90;99.90;;;;;;4996461;28;20031;-83
2021/11/21 03:12:22;;;;;;;28.20;17.52;;;4.80;99.90;;;;;;4998572;28;20037;-82
2021/11/21 03:14:49;;;;;;;27.48;17.58;;;4.80;99.90;;;;;;4982962;28;20491;-82
2021/11/21 03:17:15;;;;;;;26.02;16.85;;;4.90;99.90;;;;;;4997867;28;20037;-83
2021/11/21 03:19:41;;;;;;;26.05;17.52;;;4.80;99.90;;;;;;4995866;28;20034;-83
2021/11/21 03:22:07;;;;;;;30.00;18.58;;;4.70;99.90;;;;;;4979456;28;20030;-82
2021/11/21 03:24:33;;;;;;;31.45;19.35;;;4.80;99.90;;;;;;4979361;28;20376;-83
2021/11/21 03:26:58;;;;;;;35.40;21.52;;;4.70;99.90;;;;;;4996495;28;20077;-83
2021/11/21 03:29:24;;;;;;;33.72;21.05;;;4.60;99.90;;;;;;4996427;28;20027;-82
2021/11/21 03:31:50;;;;;;;36.97;21.75;;;4.70;99.90;;;;;;4986123;28;20018;-82
2021/11/21 03:34:15;;;;;;;37.53;20.75;;;4.70;99.90;;;;;;5019006;28;20027;-83
2021/11/21 03:36:41;;;;;;;35.67;21.35;;;4.60;99.90;;;;;;5002412;28;20030;-81
2021/11/21 03:39:08;;;;;;;34.90;21.13;;;6.50;99.90;;;;;;5018911;28;20094;-82
2021/11/21 03:41:36;;;;;;;32.17;19.40;;;4.50;99.90;;;;;;5010727;28;20117;-83
2021/11/21 03:44:02;;;;;;;32.50;19.48;;;4.60;99.90;;;;;;4979567;28;20462;-83
2021/11/21 03:46:27;;;;;;;33.72;19.85;;;4.60;99.90;;;;;;4979071;28;20031;-83
2021/11/21 03:48:54;;;;;;;32.60;19.27;;;4.60;99.90;;;;;;4995563;28;20030;-83
2021/11/21 03:51:20;;;;;;;36.63;19.90;;;5.80;99.90;;;;;;5003320;28;20054;-81
2021/11/21 03:53:45;;;;;;;32.22;19.77;;;4.60;99.90;;;;;;4987729;28;20045;-81
2021/11/21 03:56:11;;;;;;;35.22;20.05;;;4.60;99.90;;;;;;4999782;28;20026;-82
2021/11/21 03:58:37;;;;;;;30.60;19.42;;;4.60;99.90;;;;;;4977889;28;20118;-82
2021/11/21 04:01:03;;;;;;;31.70;19.40;;;4.60;99.90;;;;;;4995595;28;20022;-83
2021/11/21 04:03:29;;;;;;;31.02;19.35;;;4.60;99.90;;;;;;4977099;28;20381;-82
2021/11/21 04:05:55;;;;;;;27.17;17.60;;;4.50;99.90;;;;;;4995374;28;20038;-82
2021/11/21 04:08:20;;;;;;;30.42;18.80;;;4.70;99.90;;;;;;4977808;28;20027;-82
2021/11/21 04:10:46;;;;;;;29.58;17.92;;;4.70;99.90;;;;;;4995551;28;20487;-82
2021/11/21 04:13:12;;;;;;;28.60;18.65;;;4.60;99.90;;;;;;4996666;28;20026;-82
2021/11/21 04:15:38;;;;;;;31.33;18.52;;;4.50;99.90;;;;;;5002056;28;20487;-80
2021/11/21 04:18:04;;;;;;;28.70;18.23;;;4.50;99.90;;;;;;5008326;28;20041;-81
2021/11/21 04:20:30;;;;;;;31.25;19.40;;;4.70;99.90;;;;;;5006663;28;20029;-82
2021/11/21 04:22:55;;;;;;;30.30;19.00;;;4.80;99.90;;;;;;4976808;28;20030;-80
2021/11/21 04:25:22;;;;;;;32.25;18.73;;;4.80;99.90;;;;;;4994101;28;20812;-80
2021/11/21 04:27:48;;;;;;;31.98;19.15;;;6.50;99.90;;;;;;4994092;28;20026;-81
2021/11/21 04:30:15;;;;;;;28.98;18.80;;;4.70;99.90;;;;;;4993261;28;20122;-80
2021/11/21 04:32:44;;;;;;;29.85;17.77;;;4.70;99.90;;;;;;4993575;28;20026;-82
2021/11/21 04:35:12;;;;;;;26.80;18.23;;;4.70;99.90;;;;;;4993813;28;20101;-79
2021/11/21 04:37:38;;;;;;;27.27;16.95;;;4.80;99.90;;;;;;4976968;28;20057;-82
2021/11/21 04:40:07;;;;;;;24.35;16.13;;;4.70;99.90;;;;;;4994248;28;20569;-82
2021/11/21 04:42:33;;;;;;;27.27;16.88;;;4.90;99.90;;;;;;4994242;28;20446;-81
2021/11/21 04:44:59;;;;;;;25.48;15.77;;;4.70;99.90;;;;;;4994550;28;20023;-83
2021/11/21 04:47:24;;;;;;;29.42;16.02;;;4.60;99.90;;;;;;4976839;28;20026;-81
2021/11/21 04:49:51;;;;;;;25.25;16.50;;;4.60;99.90;;;;;;4976705;28;20026;-82
2021/11/21 04:52:16;;;;;;;28.63;16.45;;;4.60;99.90;;;;;;4994563;28;20018;-82
2021/11/21 04:54:42;;;;;;;26.83;16.95;;;4.60;99.90;;;;;;4994423;28;20037;-84
2021/11/21 04:57:08;;;;;;;28.83;17.73;;;6.40;99.90;;;;;;4976486;28;20034;-82
2021/11/21 04:59:34;;;;;;;30.83;18.17;;;4.60;99.90;;;;;;4975884;28;20027;-83
2021/11/21 05:02:01;;;;;;;30.75;18.02;;;4.40;99.90;;;;;;4975576;28;20038;-83
2021/11/21 05:04:27;;;;;;;30.83;17.00;;;4.60;99.90;;;;;;4975667;28;20077;-84
2021/11/21 05:06:53;;;;;;;29.40;17.50;;;4.60;99.90;;;;;;4975876;28;20462;-84
2021/11/21 05:09:19;;;;;;;26.05;15.65;;;4.40;99.90;;;;;;4975409;28;20031;-82
2021/11/21 05:11:45;;;;;;;24.50;14.25;;;6.30;99.90;;;;;;4974962;28;20054;-83
2021/11/21 05:14:13;;;;;;;24.33;14.40;;;5.30;99.90;;;;;;4975315;28;20061;-83
2021/11/21 05:16:38;;;;;;;19.27;12.02;;;4.50;99.90;;;;;;4992513;28;20026;-84
2021/11/21 05:19:04;;;;;;;22.83;12.05;;;4.40;99.90;;;;;;4992174;28;20081;-84
2021/11/21 05:21:30;;;;;;;20.08;11.23;;;4.60;99.90;;;;;;4992962;28;20499;-83
2021/11/21 05:23:56;;;;;;;20.08;11.48;;;4.40;99.90;;;;;;4973632;28;20022;-81
2021/11/21 05:26:23;;;;;;;20.17;11.63;;;4.50;99.90;;;;;;4997452;28;20034;-83
2021/11/21 05:28:49;;;;;;;20.58;11.57;;;4.50;99.90;;;;;;4999486;28;20026;-85
2021/11/21 05:31:14;;;;;;;23.52;12.52;;;4.40;99.90;;;;;;4963593;28;20029;-84
2021/11/21 05:33:40;;;;;;;20.00;12.38;;;4.60;99.90;;;;;;4992662;28;20069;-81
2021/11/21 05:36:06;;;;;;;19.25;11.52;;;4.50;99.90;;;;;;4998045;28;20439;-82
2021/11/21 05:38:31;;;;;;;20.42;11.98;;;4.50;99.90;;;;;;4981099;28;20195;-83
2021/11/21 05:40:57;;;;;;;22.52;13.00;;;4.50;99.90;;;;;;4998328;28;20038;-83
2021/11/21 05:43:22;;;;;;;21.73;12.45;;;5.20;99.90;;;;;;4987194;28;20052;-81
2021/11/21 05:45:48;;;;;;;22.15;12.88;;;4.40;99.90;;;;;;5012212;28;20058;-81
2021/11/21 05:48:14;;;;;;;21.83;13.20;;;4.40;99.90;;;;;;5011497;28;20102;-81
2021/11/21 05:50:39;;;;;;;18.85;11.05;;;4.50;99.90;;;;;;5008796;28;20026;-83
2021/11/21 05:53:05;;;;;;;18.42;11.02;;;4.50;99.90;;;;;;4998683;28;20026;-83
2021/11/21 05:55:31;;;;;;;18.58;11.52;;;4.50;99.90;;;;;;4979951;28;20030;-82
2021/11/21 05:57:57;;;;;;;22.48;12.60;;;4.60;99.90;;;;;;4997455;28;20117;-84
2021/11/21 06:00:25;;;;;;;21.02;12.27;;;4.40;99.90;;;;;;4979934;28;20065;-82
2021/11/21 06:02:52;;;;;;;20.00;11.82;;;4.50;99.90;;;;;;4979749;28;20066;-83
2021/11/21 06:05:18;;;;;;;23.38;13.05;;;4.40;99.90;;;;;;4997318;28;20113;-83
2021/11/21 06:07:44;;;;;;;19.48;11.80;;;5.10;99.90;;;;;;4997412;28;20035;-84
2021/11/21 06:10:11;;;;;;;24.67;13.07;;;4.50;99.90;;;;;;4997067;28;20026;-84
2021/11/21 06:12:38;;;;;;;20.00;12.13;;;4.50;99.90;;;;;;4998202;28;20026;-84
2021/11/21 06:15:04;;;;;;;22.33;13.02;;;4.40;99.90;;;;;;5004254;28;20022;-82
2021/11/21 06:17:30;;;;;;;22.00;12.60;;;4.50;99.90;;;;;;4995741;28;20062;-82
2021/11/21 06:19:55;;;;;;;22.90;12.98;;;4.40;99.90;;;;;;4988858;28;20085;-83
2021/11/21 06:22:22;;;;;;;24.02;12.85;;;4.40;99.90;;;;;;5000928;28;20483;-83
2021/11/21 06:24:48;;;;;;;20.65;13.05;;;4.50;99.90;;;;;;5012209;28;20025;-82
2021/11/21 06:27:13;;;;;;;25.25;13.82;;;4.90;99.90;;;;;;4980731;28;20037;-83
2021/11/21 06:29:40;;;;;;;23.80;14.23;;;4.50;99.90;;;;;;4985132;28;20029;-85
2021/11/21 06:32:06;;;;;;;27.60;14.27;;;4.30;99.90;;;;;;5000949;28;20106;-83
2021/11/21 06:34:32;;;;;;;24.65;13.85;;;4.60;99.90;;;;;;5000091;28;20058;-83
2021/11/21 06:36:58;;;;;;;21.70;12.82;;;5.60;99.90;;;;;;5005416;28;20060;-79
2021/11/21 06:39:24;;;;;;;23.88;14.02;;;4.60;99.90;;;;;;5004088;28;20026;-80
2021/11/21 06:41:50;;;;;;;24.45;12.85;;;4.60;99.90;;;;;;4981635;28;20692;-79
2021/11/21 06:44:15;;;;;;;20.23;12.60;;;4.50;99.90;;;;;;4999210;28;20062;-79
2021/11/21 06:46:41;;;;;;;21.52;12.27;;;6.20;99.90;;;;;;4998805;28;20045;-79
2021/11/21 06:49:07;;;;;;;21.85;11.70;;;4.50;99.90;;;;;;4998505;28;20114;-79
2021/11/21 06:51:34;;;;;;;21.88;11.77;;;4.50;99.90;;;;;;4999468;28;20023;-79
2021/11/21 06:53:59;;;;;;;19.55;12.02;;;6.00;99.90;;;;;;4980798;28;20026;-80
2021/11/21 06:56:29;;;;;;;22.42;11.45;;;6.20;99.90;;;;;;4961397;28;20081;-80
2021/11/21 06:58:56;;;;;;;19.52;10.85;;;5.30;99.90;;;;;;4988304;28;20019;-80
2021/11/21 07:01:21;;;;;;;18.05;10.73;;;5.20;99.90;;;;;;4981045;28;20018;-79
2021/11/21 07:03:47;;;;;;;17.13;10.18;;;4.50;99.90;;;;;;4980922;28;20030;-79
2021/11/21 07:06:43;;;;;;;16.80;9.50;;;4.60;99.90;;;;;;4998646;28;20026;-80
2021/11/21 07:09:14;;;;;;;19.63;10.57;;;4.50;99.90;;;;;;4980190;28;20121;-79
2021/11/21 07:11:42;;;;;;;19.05;11.20;;;5.00;99.90;;;;;;4999165;28;20022;-79
2021/11/21 07:14:11;;;;;;;15.00;9.30;;;4.50;99.90;;;;;;4982012;28;20039;-78
2021/11/21 07:16:38;;;;;;;16.58;9.35;;;4.60;99.90;;;;;;4999203;28;20102;-79
2021/11/21 07:19:04;;;;;;;15.43;10.27;;;6.20;99.90;;;;;;4980418;28;20102;-80
2021/11/21 07:21:30;;;;;;;17.00;9.20;;;4.50;99.90;;;;;;4985937;28;20096;-78
2021/11/21 07:23:56;;;;;;;16.10;9.65;;;4.50;99.90;;;;;;5000108;28;20479;-81
2021/11/21 07:26:21;;;;;;;14.43;8.70;;;4.40;99.90;;;;;;5000759;28;20049;-80
2021/11/21 07:28:47;;;;;;;14.57;8.77;;;4.60;99.90;;;;;;4998984;28;20037;-79
2021/11/21 07:31:14;;;;;;;11.43;7.53;;;6.30;99.90;;;;;;5000226;28;20519;-80
2021/11/21 07:33:39;;;;;;;10.55;6.65;;;4.50;99.90;;;;;;5000032;28;20038;-79
2021/11/21 07:36:05;;;;;;;10.13;6.00;;;4.60;99.90;;;;;;4999670;28;20038;-79
2021/11/21 07:38:32;;;;;;;8.77;5.88;;;4.60;99.90;;;;;;4998850;28;20030;-81
2021/11/21 07:40:58;;;;;;;9.70;5.25;;;4.70;99.90;;;;;;5002087;28;20381;-80
2021/11/21 07:43:23;;;;;;;7.50;4.68;;;4.30;99.90;;;;;;4986776;28;20042;-79
2021/11/21 07:45:51;;;;;;;7.50;5.00;;;4.60;99.90;;;;;;4982713;28;20042;-80
2021/11/21 07:48:18;;;;;;;6.60;4.32;;;4.60;99.90;;;;;;4997017;28;20514;-80
2021/11/21 07:50:43;;;;;;;8.00;4.68;;;5.90;99.90;;;;;;4999048;28;20109;-81
2021/11/21 07:53:09;;;;;;;7.57;4.38;;;4.70;99.90;;;;;;4998392;28;20057;-80
2021/11/21 07:55:35;;;;;;;8.50;5.00;;;4.60;99.90;;;;;;4998832;28;20037;-81
2021/11/21 07:58:01;;;;;;;6.03;3.78;;;4.70;99.90;;;;;;4966201;28;20038;-79
2021/11/21 08:00:27;;;;;;;5.85;3.58;;;4.70;99.90;;;;;;4999271;28;20030;-79
2021/11/21 08:02:52;;;;;;;7.22;3.88;;;4.80;99.90;;;;;;4998991;28;20094;-79
2021/11/21 08:05:18;;;;;;;6.88;4.22;;;4.80;99.90;;;;;;4981885;28;20034;-79
2021/11/21 08:07:44;;;;;;;5.18;3.50;;;5.60;99.90;;;;;;5000405;28;20617;-78
2021/11/21 08:10:10;;;;;;;5.75;3.42;;;4.80;99.90;;;;;;4999434;28;20015;-77
2021/11/21 08:12:37;;;;;;;5.70;3.58;;;4.80;99.90;;;;;;4983175;28;20109;-80
2021/11/21 08:15:04;;;;;;;7.18;3.67;;;4.90;99.90;;;;;;4999559;28;20061;-79
2021/11/21 08:17:30;;;;;;;4.85;3.05;;;4.90;99.90;;;;;;5000072;28;20030;-80
2021/11/21 08:19:55;;;;;;;5.10;3.45;;;5.90;99.90;;;;;;4982209;28;20065;-79
2021/11/21 08:22:21;;;;;;;5.65;3.13;;;4.90;99.90;;;;;;5003533;28;20050;-79
2021/11/21 08:24:47;;;;;;;3.95;2.78;;;6.50;99.90;;;;;;5003017;28;20034;-79
2021/11/21 08:27:13;;;;;;;5.82;3.00;;;5.80;99.90;;;;;;4984977;28;20038;-80
2021/11/21 08:29:40;;;;;;;4.32;2.88;;;6.10;99.90;;;;;;4999766;28;20030;-79
2021/11/21 08:32:06;;;;;;;5.18;2.75;;;4.90;99.90;;;;;;4966487;28;20022;-79
2021/11/21 08:34:33;;;;;;;6.22;3.22;;;4.90;99.90;;;;;;4999609;28;20068;-80
2021/11/21 08:36:58;;;;;;;4.90;3.17;;;4.90;99.90;;;;;;5000542;28;20767;-80
2021/11/21 08:39:24;;;;;;;4.97;2.85;;;5.00;99.90;;;;;;4971965;28;20058;-81
2021/11/21 08:41:55;;;;;;;4.82;2.97;;;5.00;99.90;;;;;;4998724;28;20034;-80
2021/11/21 08:44:22;;;;;;;4.28;2.97;;;5.10;99.90;;;;;;4997801;28;20026;-80
2021/11/21 08:46:48;;;;;;;5.28;2.90;;;5.10;99.90;;;;;;4997944;28;20058;-79
2021/11/21 08:49:14;;;;;;;5.43;2.40;;;5.00;99.90;;;;;;4996720;28;20089;-78
2021/11/21 08:51:43;;;;;;;5.03;2.88;;;4.90;99.90;;;;;;4997805;28;20038;-80
2021/11/21 08:54:09;;;;;;;5.20;2.85;;;6.50;99.90;;;;;;4998331;28;20030;-80
2021/11/21 08:56:35;;;;;;;4.35;2.65;;;5.90;99.90;;;;;;4997745;28;20070;-80
2021/11/21 08:59:03;;;;;;;4.43;2.85;;;5.20;99.90;;;;;;4979792;28;20030;-80
2021/11/21 09:01:28;;;;;;;4.90;2.50;;;5.00;99.90;;;;;;4999981;28;20030;-80
2021/11/21 09:03:54;;;;;;;4.65;2.40;;;5.30;99.90;;;;;;4980336;28;20134;-79
2021/11/21 09:06:20;;;;;;;5.50;2.50;;;5.10;99.90;;;;;;4998126;28;20041;-80
2021/11/21 09:08:45;;;;;;;4.78;2.75;;;5.00;99.90;;;;;;4995572;28;20113;-80
2021/11/21 09:11:11;;;;;;;6.13;2.80;;;5.30;99.90;;;;;;4993767;28;20034;-78
2021/11/21 09:13:37;;;;;;;5.78;2.53;;;5.20;99.90;;;;;;4960774;28;20050;-80
2021/11/21 09:16:03;;;;;;;4.82;2.25;;;5.80;99.90;;;;;;4992628;28;20039;-79
2021/11/21 09:18:28;;;;;;;4.43;2.30;;;5.30;99.90;;;;;;4996587;28;20034;-80
2021/11/21 09:20:56;;;;;;;5.55;2.20;;;5.40;99.90;;;;;;4980174;28;20062;-79
2021/11/21 09:23:23;;;;;;;4.43;2.70;;;5.90;99.90;;;;;;4998796;28;20033;-81
2021/11/21 09:25:52;;;;;;;6.25;2.30;;;5.40;99.90;;;;;;4998720;28;20034;-80
2021/11/21 09:28:19;;;;;;;5.22;2.58;;;5.40;99.90;;;;;;4980829;28;20041;-81
2021/11/21 09:30:45;;;;;;;5.00;2.55;;;5.50;99.90;;;;;;4981177;28;20046;-79
2021/11/21 09:33:11;;;;;;;5.60;2.92;;;5.40;99.90;;;;;;4966194;28;20395;-80
2021/11/21 09:35:38;;;;;;;4.63;2.78;;;5.50;99.90;;;;;;5008683;28;20022;-80
2021/11/21 09:38:04;;;;;;;5.50;2.83;;;5.60;99.90;;;;;;4995137;28;20099;-79
2021/11/21 09:40:29;;;;;;;9.20;2.83;;;5.60;99.90;;;;;;5007357;28;20042;-77
2021/11/21 09:42:55;;;;;;;5.28;2.75;;;5.60;99.90;;;;;;5003771;28;20041;-80
2021/11/21 09:45:21;;;;;;;4.82;3.00;;;5.60;99.90;;;;;;4986483;28;20049;-81
2021/11/21 09:47:52;;;;;;;6.45;3.28;;;5.50;99.90;;;;;;4983734;28;20030;-79
2021/11/21 09:50:20;;;;;;;4.85;2.90;;;5.70;99.90;;;;;;4982890;28;20035;-77
2021/11/21 09:52:47;;;;;;;4.97;2.75;;;6.00;99.90;;;;;;4997439;28;20122;-78
2021/11/21 09:55:13;;;;;;;5.53;3.10;;;5.60;99.90;;;;;;4979680;28;20038;-81
2021/11/21 09:57:39;;;;;;;5.68;2.95;;;5.60;99.90;;;;;;4996522;28;20039;-80
2021/11/21 10:00:08;;;;;;;4.88;2.67;;;5.70;99.90;;;;;;4996023;28;20058;-80
2021/11/21 10:02:36;;;;;;;4.57;2.30;;;5.50;99.90;;;;;;5000080;28;20034;-79
2021/11/21 10:05:22;;;;;;;4.65;2.78;;;5.60;99.90;;;;;;5001306;28;20034;-79
2021/11/21 10:07:48;;;;;;;4.88;2.53;;;5.60;99.90;;;;;;5000566;28;20073;-80
2021/11/21 10:10:18;;;;;;;4.80;2.30;;;7.40;99.90;;;;;;4983283;28;20038;-80
2021/11/21 10:12:44;;;;;;;5.25;2.90;;;7.40;99.90;;;;;;5002195;28;20380;-80
2021/11/21 10:15:17;;;;;;;3.60;1.92;;;5.80;99.90;;;;;;5001260;28;20098;-79
2021/11/21 10:17:47;;;;;;;5.20;2.72;;;5.80;99.90;;;;;;4983869;28;20026;-81
2021/11/21 10:20:21;;;;;;;5.65;3.30;;;5.90;99.90;;;;;;4999700;28;20101;-79
2021/11/21 10:22:48;;;;;;;5.25;3.08;;;5.90;99.90;;;;;;5000849;28;20053;-79
2021/11/21 10:25:14;;;;;;;5.88;3.10;;;5.90;99.90;;;;;;5001034;28;20038;-80
2021/11/21 10:27:41;;;;;;;5.28;2.80;;;5.90;99.90;;;;;;4984878;28;20046;-80
2021/11/21 10:30:08;;;;;;;6.80;3.97;;;5.90;99.90;;;;;;5001108;28;20022;-80
2021/11/21 10:32:34;;;;;;;8.45;4.07;;;5.80;99.90;;;;;;5002282;28;20062;-80
2021/11/21 10:35:03;;;;;;;7.68;3.95;;;6.20;99.90;;;;;;5002038;28;20022;-80
2021/11/21 10:37:33;;;;;;;7.70;3.92;;;5.70;99.90;;;;;;5008840;23;20053;-81
2021/11/21 10:40:01;;;;;;;8.60;4.57;;;6.40;99.90;;;;;;5002363;28;20027;-81
2021/11/21 10:42:28;;;;;;;8.27;4.63;;;5.70;99.90;;;;;;4969565;28;20026;-81
2021/11/21 10:44:54;;;;;;;8.20;4.60;;;5.70;99.90;;;;;;4986541;28;20031;-81
2021/11/21 10:47:20;;;;;;;8.82;5.22;;;5.80;99.90;;;;;;4976454;28;20041;-81
2021/11/21 10:49:53;;;;;;;9.13;4.97;;;5.80;99.90;;;;;;4992934;28;20380;-82
2021/11/21 10:52:22;;;;;;;9.27;4.55;;;5.80;99.90;;;;;;4968439;28;20033;-81
2021/11/21 10:54:59;;;;;;;9.68;5.47;;;5.80;99.90;;;;;;4982958;28;20026;-81
2021/11/21 10:57:29;;;;;;;7.60;4.72;;;5.90;99.90;;;;;;4988773;28;20077;-81
2021/11/21 10:59:59;;;;;;;8.07;5.40;;;6.00;99.90;;;;;;4988181;28;20444;-81
2021/11/21 11:02:37;;;;;;;8.00;5.32;;;6.10;99.90;;;;;;4983603;28;20033;-82
2021/11/21 11:05:04;;;;;;;9.07;5.90;;;5.90;99.90;;;;;;4984975;28;20058;-81
2021/11/21 11:07:35;;;;;;;10.25;5.82;;;5.80;99.90;;;;;;5002147;28;20057;-81
2021/11/21 11:10:02;;;;;;;10.43;6.10;;;5.70;99.90;;;;;;5004286;28;20034;-81
2021/11/21 11:12:27;;;;;;;9.70;5.28;;;6.00;99.90;;;;;;5004217;28;20034;-81
2021/11/21 11:14:56;;;;;;;9.25;5.57;;;5.90;99.90;;;;;;4999269;28;20038;-81
2021/11/21 11:17:26;;;;;;;8.90;5.63;;;5.90;99.90;;;;;;4986179;28;20129;-81
2021/11/21 11:19:55;;;;;;;9.80;6.07;;;6.80;99.90;;;;;;4999254;28;20034;-81
2021/11/21 11:22:22;;;;;;;11.00;6.30;;;5.90;99.90;;;;;;4980714;28;20041;-81
2021/11/21 11:24:48;;;;;;;8.43;5.65;;;7.70;99.90;;;;;;4998047;28;20038;-81
2021/11/21 11:27:30;;;;;;;10.73;6.72;;;6.00;99.90;;;;;;4994857;28;20034;-82
2021/11/21 11:29:56;;;;;;;10.15;6.35;;;6.10;99.90;;;;;;4993112;28;20019;-81
2021/11/21 11:32:34;;;;;;;8.82;5.65;;;6.50;99.90;;;;;;4979819;28;20106;-81
2021/11/21 11:35:00;;;;;;;10.68;5.60;;;6.40;99.90;;;;;;4980104;28;20038;-81
2021/11/21 11:37:35;;;;;;;8.13;5.20;;;6.40;99.90;;;;;;4979729;28;20111;-82
2021/11/21 11:40:01;;;;;;;9.57;5.22;;;6.50;99.90;;;;;;4999191;28;20432;-81
2021/11/21 11:42:39;;;;;;;8.45;4.97;;;7.40;99.90;;;;;;4984279;28;20026;-81
2021/11/21 11:45:08;;;;;;;12.90;5.88;;;6.60;99.90;;;;;;4998794;28;20121;-81
2021/11/21 11:47:37;;;;;;;9.52;5.20;;;6.60;99.90;;;;;;5000138;28;20018;-82
2021/11/21 11:50:05;;;;;;;10.02;5.47;;;6.60;99.90;;;;;;4982765;28;20018;-81
2021/11/21 11:53:09;;;;;;;9.40;4.93;;;6.80;99.90;;;;;;4999631;28;20050;-81
2021/11/21 11:55:35;;;;;;;10.35;5.43;;;6.90;99.90;;;;;;4924854;29;20090;-81
2021/11/21 11:58:01;;;;;;;8.23;5.00;;;6.60;99.90;;;;;;4941732;29;20107;-81
2021/11/21 12:00:37;;;;;;;8.68;5.43;;;6.70;99.90;;;;;;4959818;28;20050;-81
2021/11/21 12:03:42;;;;;;;7.82;4.63;;;6.80;99.90;;;;;;4987992;28;20026;-81
2021/11/21 12:06:08;;;;;;;7.05;4.28;;;6.90;99.90;;;;;;4982876;28;20038;-81
2021/11/21 12:08:33;;;;;;;7.00;4.03;;;6.90;99.90;;;;;;4999835;28;20450;-81
2021/11/21 12:10:59;;;;;;;8.18;4.45;;;8.60;99.90;;;;;;4998852;28;20036;-81
2021/11/21 12:13:29;;;;;;;7.90;4.43;;;6.80;99.90;;;;;;4981315;28;20487;-81
2021/11/21 12:16:03;;;;;;;8.15;4.90;;;6.80;99.90;;;;;;4998380;28;20089;-81
2021/11/21 12:18:55;;;;;;;8.25;4.57;;;6.70;99.90;;;;;;4991621;28;20030;-81
2021/11/21 12:21:37;;;;;;;8.20;4.15;;;6.80;99.90;;;;;;4981393;28;20026;-81
2021/11/21 12:24:05;;;;;;;6.28;4.00;;;6.80;99.90;;;;;;4997592;28;20027;-81
2021/11/21 12:26:36;;;;;;;8.93;4.80;;;6.80;99.90;;;;;;4997766;28;20034;-81
2021/11/21 12:29:25;;;;;;;9.43;4.90;;;6.70;99.90;;;;;;4997454;28;20030;-81
2021/11/21 12:31:53;;;;;;;9.05;4.95;;;6.80;99.90;;;;;;4998187;28;20018;-81
2021/11/21 12:34:38;;;;;;;9.02;4.78;;;7.30;99.90;;;;;;4979885;28;20031;-81
2021/11/21 12:37:08;;;;;;;7.97;4.97;;;6.60;99.90;;;;;;4997977;28;20103;-81
2021/11/21 12:39:34;;;;;;;7.72;5.03;;;6.40;99.90;;;;;;4980747;28;20073;-81
2021/11/21 12:42:02;;;;;;;8.45;5.32;;;6.50;99.90;;;;;;4998655;28;20038;-81
2021/11/21 12:44:27;;;;;;;8.02;4.93;;;6.50;99.90;;;;;;4980849;28;20030;-81
2021/11/21 12:47:04;;;;;;;7.80;4.85;;;6.80;99.90;;;;;;4981047;28;20125;-81